METAR Data
IDs: Format: Raw Decoded Include TAF

Data at: 1256 UTC 23 Sep 2018

KTVL 231253Z AUTO 22003KT 10SM CLR 04/M03 A3012 RMK AO2 SLP157 T00441033
KTVL 231153Z AUTO 00000KT 10SM CLR 05/M03 A3013 RMK AO2 SLP156 T00501033 10100 20050 56006
KTVL 231053Z AUTO 21003KT 10SM CLR 06/M04 A3013 RMK AO2 SLP154 T00561039
KTVL 230953Z AUTO 21004KT 10SM CLR 06/M04 A3014 RMK AO2 SLP156 T00561044
KTVL 230853Z AUTO 19004KT 10SM CLR 06/M05 A3015 RMK AO2 SLP161 T00561050 58006
KTVL 230753Z AUTO 19005KT 10SM CLR 08/M06 A3016 RMK AO2 SLP161 T00781061 402281006
KTVL 230653Z AUTO 19005KT 10SM CLR 08/M06 A3016 RMK AO2 SLP164 T00781056
KTVL 230553Z AUTO 17006KT 10SM CLR 10/M03 A3017 RMK AO2 SLP165 T01001028 10211 20100 58000
KTVL 230453Z AUTO 20007KT 10SM CLR 14/M02 A3017 RMK AO2 SLP162 T01391017
KTVL 230353Z AUTO VRB03KT 10SM CLR 12/M02 A3018 RMK AO2 SLP179 T01221017
KTVL 230253Z AUTO 21004KT 10SM CLR 15/M02 A3017 RMK AO2 SLP185 T01501017 53001
KTVL 230153Z AUTO 22004KT 10SM CLR 16/M03 A3017 RMK AO2 SLP188 T01611028
KTVL 230053Z AUTO 20010G15KT 10SM CLR 19/M04 A3017 RMK AO2 SLP182 T01891039
KTVL 222353Z AUTO VRB05G14KT 10SM CLR 21/M05 A3017 RMK AO2 SLP177 T02111050 10228 20200 56005
KTVL 222253Z AUTO 20007G16KT 10SM CLR 22/M04 A3017 RMK AO2 PK WND 19027/2212 SLP176 T02171039
KTVL 222153Z AUTO 19012G17KT 10SM CLR 23/M04 A3017 RMK AO2 SLP173 T02281039
KTVL 222053Z AUTO 24008KT 190V300 10SM CLR 22/M05 A3018 RMK AO2 SLP179 T02171050 58013
KTVL 221953Z AUTO 19012G19KT 10SM CLR 22/M07 A3020 RMK AO2 SLP183 T02171067 $
KTVL 221853Z AUTO 10SM CLR 21/M05 A3022 RMK AO2 SLP186 T02111050 $
KTVL 221753Z AUTO 10SM CLR 20/M03 A3023 RMK AO2 SLP190 T02001033 10200 21006 58003 $
KTVL 221653Z AUTO 10SM CLR 18/M05 A3023 RMK AO2 SLP191 T01831050
KTVL 221553Z AUTO 10SM CLR 11/M01 A3024 RMK AO2 SLP203 T01111011 $
KTVL 221453Z AUTO 10SM CLR 02/M03 A3024 RMK AO2 SLP214 T00221033 53004 $
KTVL 221353Z AUTO 10SM CLR M01/M04 A3023 RMK AO2 SLP207 T10061039 $
KTVL 221253Z AUTO 10SM CLR 00/M04 A3023 RMK AO2 SLP200 T00001039 $
KTVL 221153Z AUTO 10SM CLR 01/M03 A3023 RMK AO2 SLP196 T00061033 10072 20006 56007 $
KTVL 221053Z AUTO 10SM CLR 02/M03 A3023 RMK AO2 SLP193 T00171033 $
KTVL 220953Z AUTO 10SM CLR 02/M03 A3024 RMK AO2 SLP197 T00221028 $
KTVL 220853Z AUTO 10SM CLR 03/M02 A3025 RMK AO2 SLP202 T00281017 56004 $
KTVL 220753Z AUTO 10SM CLR 04/M02 A3025 RMK AO2 SLP201 T00441017 402441011 $
KTVL 220653Z AUTO 10SM CLR 06/M01 A3026 RMK AO2 SLP204 T00611011 $
KTVL 220553Z AUTO 10SM CLR 07/M01 A3027 RMK AO2 SLP205 T00721006 10228 20072 50007 $
KTVL 220453Z AUTO 10SM CLR 09/M01 A3027 RMK AO2 SLP206 T00941011 $
KTVL 220353Z AUTO 10SM CLR 11/M01 A3025 RMK AO2 SLP212 T01111011 $
KTVL 220253Z AUTO 10SM CLR 13/M02 A3024 RMK AO2 SLP217 T01331017 53011 $
KTVL 220153Z AUTO 10SM CLR 18/M02 A3022 RMK AO2 SLP204 T01781017 $